Terminal Aerodrome Forecast
Issued by NWS

Home | Current Version | Previous Version | Text Only | Print | Product List | Glossary On
Versions: 1 2 3 4 5 6 7 8 9 10 11 12 13
000
FTUS46 KMFR 152300
TAFRBG
TAF
KRBG 152324Z 1600/1624 36010KT P6SM SCT050 BKN250
     FM160200 VRB03KT P6SM SCT035 OVC250
     FM160600 00000KT P6SM VCSH OVC035
     FM161200 00000KT P6SM OVC025
     FM161800 VRB03KT P6SM SCT025 BKN050=

USA.gov is the U.S. government's official web portal to all federal, state and local government web resources and services.